sensor_id;sensor_type;location;lat;lon;timestamp;temperature;humidity
65598;SHT31;52267;51.984;20.956;2023-09-19T00:00:46;17.13;82.82
65598;SHT31;52267;51.984;20.956;2023-09-19T00:03:34;17.11;82.91
65598;SHT31;52267;51.984;20.956;2023-09-19T00:06:05;17.11;82.93
65598;SHT31;52267;51.984;20.956;2023-09-19T00:08:34;17.08;83.15
65598;SHT31;52267;51.984;20.956;2023-09-19T00:11:01;17.06;83.01
65598;SHT31;52267;51.984;20.956;2023-09-19T00:13:32;17.05;83.12
65598;SHT31;52267;51.984;20.956;2023-09-19T00:16:00;17.02;83.39
65598;SHT31;52267;51.984;20.956;2023-09-19T00:18:27;17.03;83.02
65598;SHT31;52267;51.984;20.956;2023-09-19T00:20:58;17.03;83.10
65598;SHT31;52267;51.984;20.956;2023-09-19T00:23:26;17.03;83.18
65598;SHT31;52267;51.984;20.956;2023-09-19T00:25:54;17.03;83.29
65598;SHT31;52267;51.984;20.956;2023-09-19T00:28:28;17.04;83.26
65598;SHT31;52267;51.984;20.956;2023-09-19T00:30:56;17.05;83.31
65598;SHT31;52267;51.984;20.956;2023-09-19T00:33:23;17.05;83.17
65598;SHT31;52267;51.984;20.956;2023-09-19T00:35:51;17.06;83.39
65598;SHT31;52267;51.984;20.956;2023-09-19T00:38:20;17.07;83.55
65598;SHT31;52267;51.984;20.956;2023-09-19T00:40:51;17.06;83.52
65598;SHT31;52267;51.984;20.956;2023-09-19T00:43:18;17.05;83.47
65598;SHT31;52267;51.984;20.956;2023-09-19T00:45:50;17.04;83.51
65598;SHT31;52267;51.984;20.956;2023-09-19T00:48:22;17.04;83.49
65598;SHT31;52267;51.984;20.956;2023-09-19T00:50:51;17.04;83.52
65598;SHT31;52267;51.984;20.956;2023-09-19T00:53:23;17.06;83.56
65598;SHT31;52267;51.984;20.956;2023-09-19T00:55:51;17.07;83.55
65598;SHT31;52267;51.984;20.956;2023-09-19T00:58:19;17.06;83.64
65598;SHT31;52267;51.984;20.956;2023-09-19T01:00:47;17.07;83.63
65598;SHT31;52267;51.984;20.956;2023-09-19T01:03:15;17.09;83.76
65598;SHT31;52267;51.984;20.956;2023-09-19T01:05:44;17.09;83.68
65598;SHT31;52267;51.984;20.956;2023-09-19T01:08:11;17.09;83.82
65598;SHT31;52267;51.984;20.956;2023-09-19T01:10:41;17.09;83.74
65598;SHT31;52267;51.984;20.956;2023-09-19T01:25:19;17.02;83.88
65598;SHT31;52267;51.984;20.956;2023-09-19T01:31:03;16.99;84.22
65598;SHT31;52267;51.984;20.956;2023-09-19T01:36:37;16.98;84.21
65598;SHT31;52267;51.984;20.956;2023-09-19T01:39:05;16.98;84.18
65598;SHT31;52267;51.984;20.956;2023-09-19T01:45:15;16.98;84.19
65598;SHT31;52267;51.984;20.956;2023-09-19T01:47:49;16.99;84.07
65598;SHT31;52267;51.984;20.956;2023-09-19T01:53:10;16.99;84.60
65598;SHT31;52267;51.984;20.956;2023-09-19T01:55:50;17.01;84.40
65598;SHT31;52267;51.984;20.956;2023-09-19T01:58:21;17.01;84.57
65598;SHT31;52267;51.984;20.956;2023-09-19T02:00:58;17.03;84.45
65598;SHT31;52267;51.984;20.956;2023-09-19T02:03:27;17.02;84.40
65598;SHT31;52267;51.984;20.956;2023-09-19T02:05:55;17.05;84.40
65598;SHT31;52267;51.984;20.956;2023-09-19T02:08:22;17.07;84.46
65598;SHT31;52267;51.984;20.956;2023-09-19T02:10:53;17.08;84.48
65598;SHT31;52267;51.984;20.956;2023-09-19T02:13:20;17.08;84.43
65598;SHT31;52267;51.984;20.956;2023-09-19T02:15:51;17.06;84.54
65598;SHT31;52267;51.984;20.956;2023-09-19T02:18:18;17.05;84.80
65598;SHT31;52267;51.984;20.956;2023-09-19T02:20:45;17.03;84.86
65598;SHT31;52267;51.984;20.956;2023-09-19T02:23:13;17.05;84.63
65598;SHT31;52267;51.984;20.956;2023-09-19T02:25:40;17.06;84.49
65598;SHT31;52267;51.984;20.956;2023-09-19T02:28:07;17.05;84.97
65598;SHT31;52267;51.984;20.956;2023-09-19T02:30:35;17.05;84.83
65598;SHT31;52267;51.984;20.956;2023-09-19T02:33:03;17.06;85.07
65598;SHT31;52267;51.984;20.956;2023-09-19T02:35:30;17.05;85.20
65598;SHT31;52267;51.984;20.956;2023-09-19T02:38:02;17.05;84.84
65598;SHT31;52267;51.984;20.956;2023-09-19T02:40:33;17.08;84.74
65598;SHT31;52267;51.984;20.956;2023-09-19T02:43:02;17.08;84.68
65598;SHT31;52267;51.984;20.956;2023-09-19T02:45:30;17.09;84.66
65598;SHT31;52267;51.984;20.956;2023-09-19T02:47:58;17.10;84.66
65598;SHT31;52267;51.984;20.956;2023-09-19T02:50:25;17.11;84.68
65598;SHT31;52267;51.984;20.956;2023-09-19T02:52:52;17.11;84.66
65598;SHT31;52267;51.984;20.956;2023-09-19T02:55:19;17.09;84.73
65598;SHT31;52267;51.984;20.956;2023-09-19T02:57:48;17.08;84.92
65598;SHT31;52267;51.984;20.956;2023-09-19T03:00:18;17.07;84.96
65598;SHT31;52267;51.984;20.956;2023-09-19T03:02:55;17.06;84.74
65598;SHT31;52267;51.984;20.956;2023-09-19T03:05:22;17.05;84.86
65598;SHT31;52267;51.984;20.956;2023-09-19T03:07:51;17.03;84.82
65598;SHT31;52267;51.984;20.956;2023-09-19T03:10:19;17.00;85.26
65598;SHT31;52267;51.984;20.956;2023-09-19T03:12:47;16.98;85.07
65598;SHT31;52267;51.984;20.956;2023-09-19T03:15:15;16.95;84.96
65598;SHT31;52267;51.984;20.956;2023-09-19T03:17:43;16.94;84.89
65598;SHT31;52267;51.984;20.956;2023-09-19T03:20:12;16.92;84.86
65598;SHT31;52267;51.984;20.956;2023-09-19T03:22:40;16.88;84.84
65598;SHT31;52267;51.984;20.956;2023-09-19T03:25:07;16.86;84.82
65598;SHT31;52267;51.984;20.956;2023-09-19T03:27:35;16.84;84.90
65598;SHT31;52267;51.984;20.956;2023-09-19T03:30:02;16.81;84.97
65598;SHT31;52267;51.984;20.956;2023-09-19T03:32:42;16.76;84.95
65598;SHT31;52267;51.984;20.956;2023-09-19T03:35:13;16.73;85.01
65598;SHT31;52267;51.984;20.956;2023-09-19T03:37:41;16.73;84.97
65598;SHT31;52267;51.984;20.956;2023-09-19T03:40:09;16.70;85.57
65598;SHT31;52267;51.984;20.956;2023-09-19T03:42:38;16.65;85.83
65598;SHT31;52267;51.984;20.956;2023-09-19T03:45:08;16.64;85.38
65598;SHT31;52267;51.984;20.956;2023-09-19T03:47:39;16.64;85.25
65598;SHT31;52267;51.984;20.956;2023-09-19T03:50:07;16.61;85.17
65598;SHT31;52267;51.984;20.956;2023-09-19T03:52:37;16.59;85.16
65598;SHT31;52267;51.984;20.956;2023-09-19T03:55:04;16.58;85.12
65598;SHT31;52267;51.984;20.956;2023-09-19T03:57:32;16.57;85.10
65598;SHT31;52267;51.984;20.956;2023-09-19T03:59:59;16.54;85.08
65598;SHT31;52267;51.984;20.956;2023-09-19T04:02:26;16.52;85.08
65598;SHT31;52267;51.984;20.956;2023-09-19T04:04:59;16.49;85.10
65598;SHT31;52267;51.984;20.956;2023-09-19T04:07:26;16.46;85.27
65598;SHT31;52267;51.984;20.956;2023-09-19T04:09:55;16.44;85.29
65598;SHT31;52267;51.984;20.956;2023-09-19T04:12:22;16.45;85.27
65598;SHT31;52267;51.984;20.956;2023-09-19T04:14:49;16.43;85.31
65598;SHT31;52267;51.984;20.956;2023-09-19T04:17:16;16.42;85.30
65598;SHT31;52267;51.984;20.956;2023-09-19T04:19:45;16.41;85.31
65598;SHT31;52267;51.984;20.956;2023-09-19T04:22:12;16.41;85.39
65598;SHT31;52267;51.984;20.956;2023-09-19T04:24:39;16.42;85.49
65598;SHT31;52267;51.984;20.956;2023-09-19T04:27:06;16.40;85.54
65598;SHT31;52267;51.984;20.956;2023-09-19T04:29:33;16.41;85.58
65598;SHT31;52267;51.984;20.956;2023-09-19T04:32:01;16.42;85.53
65598;SHT31;52267;51.984;20.956;2023-09-19T04:34:32;16.42;85.56
65598;SHT31;52267;51.984;20.956;2023-09-19T04:37:00;16.41;85.59
65598;SHT31;52267;51.984;20.956;2023-09-19T04:39:28;16.42;85.70
65598;SHT31;52267;51.984;20.956;2023-09-19T04:41:55;16.44;85.70
65598;SHT31;52267;51.984;20.956;2023-09-19T04:44:23;16.47;85.68
65598;SHT31;52267;51.984;20.956;2023-09-19T04:46:50;16.49;85.81
65598;SHT31;52267;51.984;20.956;2023-09-19T04:49:17;16.53;85.83
65598;SHT31;52267;51.984;20.956;2023-09-19T04:51:44;16.57;85.82
65598;SHT31;52267;51.984;20.956;2023-09-19T04:54:13;16.62;85.74
65598;SHT31;52267;51.984;20.956;2023-09-19T04:56:42;16.66;85.72
65598;SHT31;52267;51.984;20.956;2023-09-19T04:59:09;16.71;85.75
65598;SHT31;52267;51.984;20.956;2023-09-19T05:01:37;16.75;85.82
65598;SHT31;52267;51.984;20.956;2023-09-19T05:04:04;16.81;85.77
65598;SHT31;52267;51.984;20.956;2023-09-19T05:06:31;16.85;85.75
65598;SHT31;52267;51.984;20.956;2023-09-19T05:09:00;16.89;85.79
65598;SHT31;52267;51.984;20.956;2023-09-19T05:11:27;16.94;85.87
65598;SHT31;52267;51.984;20.956;2023-09-19T05:13:56;16.98;85.84
65598;SHT31;52267;51.984;20.956;2023-09-19T05:16:23;17.03;85.84
65598;SHT31;52267;51.984;20.956;2023-09-19T05:18:50;17.08;85.91
65598;SHT31;52267;51.984;20.956;2023-09-19T05:21:18;17.13;85.87
65598;SHT31;52267;51.984;20.956;2023-09-19T05:23:45;17.19;86.02
65598;SHT31;52267;51.984;20.956;2023-09-19T05:26:13;17.25;85.81
65598;SHT31;52267;51.984;20.956;2023-09-19T05:28:43;17.32;85.76
65598;SHT31;52267;51.984;20.956;2023-09-19T05:31:10;17.38;85.76
65598;SHT31;52267;51.984;20.956;2023-09-19T05:33:36;17.44;85.72
65598;SHT31;52267;51.984;20.956;2023-09-19T05:36:04;17.50;85.56
65598;SHT31;52267;51.984;20.956;2023-09-19T05:38:31;17.56;85.57
65598;SHT31;52267;51.984;20.956;2023-09-19T05:40:59;17.59;85.58
65598;SHT31;52267;51.984;20.956;2023-09-19T05:43:26;17.66;85.48
65598;SHT31;52267;51.984;20.956;2023-09-19T05:45:53;17.72;85.57
65598;SHT31;52267;51.984;20.956;2023-09-19T05:48:22;17.78;85.39
65598;SHT31;52267;51.984;20.956;2023-09-19T05:50:49;17.85;85.40
65598;SHT31;52267;51.984;20.956;2023-09-19T05:53:16;17.92;85.29
65598;SHT31;52267;51.984;20.956;2023-09-19T05:55:45;18.00;85.19
65598;SHT31;52267;51.984;20.956;2023-09-19T05:58:12;18.06;85.14
65598;SHT31;52267;51.984;20.956;2023-09-19T06:00:40;18.12;84.99
65598;SHT31;52267;51.984;20.956;2023-09-19T06:03:09;18.18;84.84
65598;SHT31;52267;51.984;20.956;2023-09-19T06:05:39;18.24;84.92
65598;SHT31;52267;51.984;20.956;2023-09-19T06:08:07;18.27;84.71
65598;SHT31;52267;51.984;20.956;2023-09-19T06:10:36;18.34;84.57
65598;SHT31;52267;51.984;20.956;2023-09-19T06:13:03;18.40;84.32
65598;SHT31;52267;51.984;20.956;2023-09-19T06:15:31;18.46;84.15
65598;SHT31;52267;51.984;20.956;2023-09-19T06:17:59;18.50;84.12
65598;SHT31;52267;51.984;20.956;2023-09-19T06:20:28;18.53;84.05
65598;SHT31;52267;51.984;20.956;2023-09-19T06:22:56;18.58;83.95
65598;SHT31;52267;51.984;20.956;2023-09-19T06:25:23;18.61;83.80
65598;SHT31;52267;51.984;20.956;2023-09-19T06:27:51;18.65;83.75
65598;SHT31;52267;51.984;20.956;2023-09-19T06:30:21;18.68;83.71
65598;SHT31;52267;51.984;20.956;2023-09-19T06:32:55;18.71;83.54
65598;SHT31;52267;51.984;20.956;2023-09-19T06:35:23;18.73;83.50
65598;SHT31;52267;51.984;20.956;2023-09-19T06:37:52;18.73;83.42
65598;SHT31;52267;51.984;20.956;2023-09-19T06:40:19;18.77;83.39
65598;SHT31;52267;51.984;20.956;2023-09-19T06:42:49;18.80;83.39
65598;SHT31;52267;51.984;20.956;2023-09-19T06:45:19;18.84;83.24
65598;SHT31;52267;51.984;20.956;2023-09-19T06:47:48;18.87;83.19
65598;SHT31;52267;51.984;20.956;2023-09-19T06:50:18;18.90;83.05
65598;SHT31;52267;51.984;20.956;2023-09-19T06:52:46;18.95;83.00
65598;SHT31;52267;51.984;20.956;2023-09-19T06:55:16;19.00;82.98
65598;SHT31;52267;51.984;20.956;2023-09-19T06:57:46;19.07;82.86
65598;SHT31;52267;51.984;20.956;2023-09-19T07:00:14;19.12;82.78
65598;SHT31;52267;51.984;20.956;2023-09-19T07:02:45;19.20;82.69
65598;SHT31;52267;51.984;20.956;2023-09-19T07:05:20;19.27;82.61
65598;SHT31;52267;51.984;20.956;2023-09-19T07:07:48;19.33;82.48
65598;SHT31;52267;51.984;20.956;2023-09-19T07:10:15;19.39;82.34
65598;SHT31;52267;51.984;20.956;2023-09-19T07:12:43;19.43;82.10
65598;SHT31;52267;51.984;20.956;2023-09-19T07:15:10;19.49;82.00
65598;SHT31;52267;51.984;20.956;2023-09-19T07:17:37;19.56;81.85
65598;SHT31;52267;51.984;20.956;2023-09-19T07:20:04;19.60;81.77
65598;SHT31;52267;51.984;20.956;2023-09-19T07:22:35;19.63;81.55
65598;SHT31;52267;51.984;20.956;2023-09-19T07:25:05;19.66;81.54
65598;SHT31;52267;51.984;20.956;2023-09-19T07:27:33;19.69;81.30
65598;SHT31;52267;51.984;20.956;2023-09-19T07:30:00;19.74;81.29
65598;SHT31;52267;51.984;20.956;2023-09-19T07:32:28;19.81;81.23
65598;SHT31;52267;51.984;20.956;2023-09-19T07:34:55;19.89;81.04
65598;SHT31;52267;51.984;20.956;2023-09-19T07:37:22;19.97;80.89
65598;SHT31;52267;51.984;20.956;2023-09-19T07:39:52;20.05;80.78
65598;SHT31;52267;51.984;20.956;2023-09-19T07:42:19;20.13;80.61
65598;SHT31;52267;51.984;20.956;2023-09-19T07:44:46;20.20;80.10
65598;SHT31;52267;51.984;20.956;2023-09-19T07:47:16;20.26;80.10
65598;SHT31;52267;51.984;20.956;2023-09-19T07:49:46;20.32;80.00
65598;SHT31;52267;51.984;20.956;2023-09-19T07:52:15;20.38;79.77
65598;SHT31;52267;51.984;20.956;2023-09-19T07:54:43;20.40;79.51
65598;SHT31;52267;51.984;20.956;2023-09-19T07:57:11;20.41;79.29
65598;SHT31;52267;51.984;20.956;2023-09-19T07:59:38;20.48;79.46
65598;SHT31;52267;51.984;20.956;2023-09-19T08:02:07;20.54;79.50
65598;SHT31;52267;51.984;20.956;2023-09-19T08:04:42;20.57;79.19
65598;SHT31;52267;51.984;20.956;2023-09-19T08:07:09;20.59;79.22
65598;SHT31;52267;51.984;20.956;2023-09-19T08:09:37;20.64;78.90
65598;SHT31;52267;51.984;20.956;2023-09-19T08:12:08;20.66;78.88
65598;SHT31;52267;51.984;20.956;2023-09-19T08:14:37;20.69;79.01
65598;SHT31;52267;51.984;20.956;2023-09-19T08:17:04;20.71;78.96
65598;SHT31;52267;51.984;20.956;2023-09-19T08:19:32;20.74;78.76
65598;SHT31;52267;51.984;20.956;2023-09-19T08:21:59;20.77;77.96
65598;SHT31;52267;51.984;20.956;2023-09-19T08:24:27;20.81;77.98
65598;SHT31;52267;51.984;20.956;2023-09-19T08:26:56;20.83;77.61
65598;SHT31;52267;51.984;20.956;2023-09-19T08:29:24;20.87;77.56
65598;SHT31;52267;51.984;20.956;2023-09-19T08:31:54;20.89;77.14
65598;SHT31;52267;51.984;20.956;2023-09-19T08:34:23;20.91;77.25
65598;SHT31;52267;51.984;20.956;2023-09-19T08:36:51;20.94;77.22
65598;SHT31;52267;51.984;20.956;2023-09-19T08:39:25;20.98;77.23
65598;SHT31;52267;51.984;20.956;2023-09-19T08:41:57;20.99;76.94
65598;SHT31;52267;51.984;20.956;2023-09-19T08:44:28;21.01;77.09
65598;SHT31;52267;51.984;20.956;2023-09-19T08:47:03;21.04;76.91
65598;SHT31;52267;51.984;20.956;2023-09-19T08:49:47;21.07;76.95
65598;SHT31;52267;51.984;20.956;2023-09-19T08:52:35;21.12;76.99
65598;SHT31;52267;51.984;20.956;2023-09-19T08:55:09;21.15;76.94
65598;SHT31;52267;51.984;20.956;2023-09-19T08:57:39;21.18;76.83
65598;SHT31;52267;51.984;20.956;2023-09-19T09:00:10;21.20;76.73
65598;SHT31;52267;51.984;20.956;2023-09-19T09:02:41;21.25;76.64
65598;SHT31;52267;51.984;20.956;2023-09-19T09:05:09;21.30;76.45
65598;SHT31;52267;51.984;20.956;2023-09-19T09:07:37;21.31;76.35
65598;SHT31;52267;51.984;20.956;2023-09-19T09:10:05;21.31;76.17
65598;SHT31;52267;51.984;20.956;2023-09-19T09:12:34;21.24;76.04
65598;SHT31;52267;51.984;20.956;2023-09-19T09:15:07;21.20;76.23
65598;SHT31;52267;51.984;20.956;2023-09-19T09:17:38;21.15;76.34
65598;SHT31;52267;51.984;20.956;2023-09-19T09:20:05;21.09;76.48
65598;SHT31;52267;51.984;20.956;2023-09-19T09:22:34;21.02;76.51
65598;SHT31;52267;51.984;20.956;2023-09-19T09:25:03;20.95;76.66
65598;SHT31;52267;51.984;20.956;2023-09-19T09:27:33;20.89;76.77
65598;SHT31;52267;51.984;20.956;2023-09-19T09:30:00;20.80;76.90
65598;SHT31;52267;51.984;20.956;2023-09-19T09:32:28;20.71;77.27
65598;SHT31;52267;51.984;20.956;2023-09-19T09:35:00;20.53;77.90
65598;SHT31;52267;51.984;20.956;2023-09-19T09:37:30;20.33;79.30
65598;SHT31;52267;51.984;20.956;2023-09-19T09:40:01;20.15;79.91
65598;SHT31;52267;51.984;20.956;2023-09-19T09:42:41;19.94;80.94
65598;SHT31;52267;51.984;20.956;2023-09-19T09:45:22;19.78;80.87
65598;SHT31;52267;51.984;20.956;2023-09-19T09:48:00;19.67;80.86
65598;SHT31;52267;51.984;20.956;2023-09-19T09:50:31;19.60;81.15
65598;SHT31;52267;51.984;20.956;2023-09-19T09:53:23;19.51;81.61
65598;SHT31;52267;51.984;20.956;2023-09-19T09:56:08;19.44;81.85
65598;SHT31;52267;51.984;20.956;2023-09-19T09:58:36;19.38;82.43
65598;SHT31;52267;51.984;20.956;2023-09-19T10:01:25;19.35;82.58
65598;SHT31;52267;51.984;20.956;2023-09-19T10:03:59;19.36;82.23
65598;SHT31;52267;51.984;20.956;2023-09-19T10:06:27;19.34;82.79
65598;SHT31;52267;51.984;20.956;2023-09-19T10:09:13;19.31;83.18
65598;SHT31;52267;51.984;20.956;2023-09-19T10:11:44;19.33;83.10
65598;SHT31;52267;51.984;20.956;2023-09-19T10:14:25;19.35;82.94
65598;SHT31;52267;51.984;20.956;2023-09-19T10:16:58;19.36;83.18
65598;SHT31;52267;51.984;20.956;2023-09-19T10:19:30;19.38;83.15
65598;SHT31;52267;51.984;20.956;2023-09-19T10:22:14;19.40;83.34
65598;SHT31;52267;51.984;20.956;2023-09-19T10:24:43;19.41;83.46
65598;SHT31;52267;51.984;20.956;2023-09-19T10:27:11;19.41;83.42
65598;SHT31;52267;51.984;20.956;2023-09-19T10:29:39;19.42;83.70
65598;SHT31;52267;51.984;20.956;2023-09-19T10:32:06;19.47;83.65
65598;SHT31;52267;51.984;20.956;2023-09-19T10:34:35;19.50;83.64
65598;SHT31;52267;51.984;20.956;2023-09-19T10:37:03;19.52;83.73
65598;SHT31;52267;51.984;20.956;2023-09-19T10:39:32;19.53;83.88
65598;SHT31;52267;51.984;20.956;2023-09-19T10:42:01;19.56;83.96
65598;SHT31;52267;51.984;20.956;2023-09-19T10:44:32;19.59;84.11
65598;SHT31;52267;51.984;20.956;2023-09-19T10:47:00;19.61;84.09
65598;SHT31;52267;51.984;20.956;2023-09-19T10:49:28;19.62;84.00
65598;SHT31;52267;51.984;20.956;2023-09-19T10:51:58;19.63;83.99
65598;SHT31;52267;51.984;20.956;2023-09-19T10:54:28;19.62;84.24
65598;SHT31;52267;51.984;20.956;2023-09-19T10:57:03;19.59;84.47
65598;SHT31;52267;51.984;20.956;2023-09-19T10:59:36;19.61;84.47
65598;SHT31;52267;51.984;20.956;2023-09-19T11:02:26;19.63;84.58
65598;SHT31;52267;51.984;20.956;2023-09-19T11:04:53;19.65;84.60
65598;SHT31;52267;51.984;20.956;2023-09-19T11:07:21;19.69;84.54
65598;SHT31;52267;51.984;20.956;2023-09-19T11:09:55;19.72;84.54
65598;SHT31;52267;51.984;20.956;2023-09-19T11:15:05;19.72;85.13
65598;SHT31;52267;51.984;20.956;2023-09-19T11:17:37;19.70;84.93
65598;SHT31;52267;51.984;20.956;2023-09-19T11:30:36;19.59;85.27
65598;SHT31;52267;51.984;20.956;2023-09-19T11:33:16;19.60;85.49
65598;SHT31;52267;51.984;20.956;2023-09-19T11:36:11;19.61;85.74
65598;SHT31;52267;51.984;20.956;2023-09-19T11:43:49;19.69;85.51
65598;SHT31;52267;51.984;20.956;2023-09-19T11:46:27;19.74;85.73
65598;SHT31;52267;51.984;20.956;2023-09-19T11:48:54;19.79;85.85
65598;SHT31;52267;51.984;20.956;2023-09-19T11:51:23;19.83;85.94
65598;SHT31;52267;51.984;20.956;2023-09-19T11:53:54;19.87;85.99
65598;SHT31;52267;51.984;20.956;2023-09-19T11:56:26;19.93;85.90
65598;SHT31;52267;51.984;20.956;2023-09-19T11:58:55;19.99;85.80
65598;SHT31;52267;51.984;20.956;2023-09-19T12:01:31;20.00;85.65
65598;SHT31;52267;51.984;20.956;2023-09-19T12:04:01;20.02;85.59
65598;SHT31;52267;51.984;20.956;2023-09-19T12:06:30;20.03;85.48
65598;SHT31;52267;51.984;20.956;2023-09-19T12:09:02;19.98;85.57
65598;SHT31;52267;51.984;20.956;2023-09-19T12:11:33;19.96;85.60
65598;SHT31;52267;51.984;20.956;2023-09-19T12:14:10;19.96;85.50
65598;SHT31;52267;51.984;20.956;2023-09-19T12:16:38;19.93;85.48
65598;SHT31;52267;51.984;20.956;2023-09-19T12:19:26;19.86;85.64
65598;SHT31;52267;51.984;20.956;2023-09-19T12:21:59;19.85;85.63
65598;SHT31;52267;51.984;20.956;2023-09-19T12:24:32;19.84;85.68
65598;SHT31;52267;51.984;20.956;2023-09-19T12:27:02;19.84;85.48
65598;SHT31;52267;51.984;20.956;2023-09-19T12:29:32;19.80;85.44
65598;SHT31;52267;51.984;20.956;2023-09-19T12:32:10;19.76;85.61
65598;SHT31;52267;51.984;20.956;2023-09-19T12:34:37;19.73;85.58
65598;SHT31;52267;51.984;20.956;2023-09-19T12:37:12;19.73;85.62
65598;SHT31;52267;51.984;20.956;2023-09-19T12:40:05;19.73;85.59
65598;SHT31;52267;51.984;20.956;2023-09-19T12:42:42;19.74;85.66
65598;SHT31;52267;51.984;20.956;2023-09-19T12:45:11;19.75;85.56
65598;SHT31;52267;51.984;20.956;2023-09-19T12:47:40;19.76;85.46
65598;SHT31;52267;51.984;20.956;2023-09-19T12:51:05;19.78;85.63
65598;SHT31;52267;51.984;20.956;2023-09-19T12:53:39;19.76;85.36
65598;SHT31;52267;51.984;20.956;2023-09-19T12:56:13;19.75;85.57
65598;SHT31;52267;51.984;20.956;2023-09-19T12:58:52;19.77;85.55
65598;SHT31;52267;51.984;20.956;2023-09-19T13:01:25;19.78;85.52
65598;SHT31;52267;51.984;20.956;2023-09-19T13:06:46;19.83;85.31
65598;SHT31;52267;51.984;20.956;2023-09-19T13:09:18;19.84;85.35
65598;SHT31;52267;51.984;20.956;2023-09-19T13:11:47;19.86;85.42
65598;SHT31;52267;51.984;20.956;2023-09-19T13:17:04;19.93;85.19
65598;SHT31;52267;51.984;20.956;2023-09-19T13:19:45;19.95;85.08
65598;SHT31;52267;51.984;20.956;2023-09-19T13:25:16;19.99;85.37
65598;SHT31;52267;51.984;20.956;2023-09-19T13:27:54;20.01;85.27
65598;SHT31;52267;51.984;20.956;2023-09-19T13:30:24;20.03;85.20
65598;SHT31;52267;51.984;20.956;2023-09-19T13:33:04;20.06;85.17
65598;SHT31;52267;51.984;20.956;2023-09-19T13:35:38;20.07;85.09
65598;SHT31;52267;51.984;20.956;2023-09-19T13:38:07;20.08;85.03
65598;SHT31;52267;51.984;20.956;2023-09-19T13:40:38;20.10;84.97
65598;SHT31;52267;51.984;20.956;2023-09-19T13:43:06;20.14;85.09
65598;SHT31;52267;51.984;20.956;2023-09-19T13:45:33;20.15;85.11
65598;SHT31;52267;51.984;20.956;2023-09-19T13:48:00;20.16;85.00
65598;SHT31;52267;51.984;20.956;2023-09-19T13:50:27;20.19;85.20
65598;SHT31;52267;51.984;20.956;2023-09-19T13:52:55;20.20;85.30
65598;SHT31;52267;51.984;20.956;2023-09-19T13:55:22;20.22;85.22
65598;SHT31;52267;51.984;20.956;2023-09-19T13:57:51;20.22;85.38
65598;SHT31;52267;51.984;20.956;2023-09-19T14:00:22;20.22;85.14
65598;SHT31;52267;51.984;20.956;2023-09-19T14:02:49;20.25;85.14
65598;SHT31;52267;51.984;20.956;2023-09-19T14:05:17;20.27;85.06
65598;SHT31;52267;51.984;20.956;2023-09-19T14:07:49;20.28;85.03
65598;SHT31;52267;51.984;20.956;2023-09-19T14:10:16;20.28;85.21
65598;SHT31;52267;51.984;20.956;2023-09-19T14:12:46;20.26;85.17
65598;SHT31;52267;51.984;20.956;2023-09-19T14:15:14;20.28;85.21
65598;SHT31;52267;51.984;20.956;2023-09-19T14:17:41;20.28;85.08
65598;SHT31;52267;51.984;20.956;2023-09-19T14:20:09;20.28;85.04
65598;SHT31;52267;51.984;20.956;2023-09-19T14:22:36;20.26;85.24
65598;SHT31;52267;51.984;20.956;2023-09-19T14:25:04;20.27;85.26
65598;SHT31;52267;51.984;20.956;2023-09-19T14:27:32;20.24;85.15
65598;SHT31;52267;51.984;20.956;2023-09-19T14:29:59;20.20;84.93
65598;SHT31;52267;51.984;20.956;2023-09-19T14:32:26;20.17;84.86
65598;SHT31;52267;51.984;20.956;2023-09-19T14:34:53;20.13;84.82
65598;SHT31;52267;51.984;20.956;2023-09-19T14:37:20;20.10;84.79
65598;SHT31;52267;51.984;20.956;2023-09-19T14:39:48;20.09;84.82
65598;SHT31;52267;51.984;20.956;2023-09-19T14:42:15;20.08;84.71
65598;SHT31;52267;51.984;20.956;2023-09-19T14:44:44;20.08;84.68
65598;SHT31;52267;51.984;20.956;2023-09-19T14:47:11;20.06;84.61
65598;SHT31;52267;51.984;20.956;2023-09-19T14:49:40;20.07;84.59
65598;SHT31;52267;51.984;20.956;2023-09-19T14:52:07;20.08;84.55
65598;SHT31;52267;51.984;20.956;2023-09-19T14:54:36;20.09;84.50
65598;SHT31;52267;51.984;20.956;2023-09-19T14:57:04;20.10;84.48
65598;SHT31;52267;51.984;20.956;2023-09-19T14:59:31;20.09;84.47
65598;SHT31;52267;51.984;20.956;2023-09-19T15:01:59;20.10;84.40
65598;SHT31;52267;51.984;20.956;2023-09-19T15:04:27;20.11;84.30
65598;SHT31;52267;51.984;20.956;2023-09-19T15:06:54;20.11;84.13
65598;SHT31;52267;51.984;20.956;2023-09-19T15:09:22;20.12;84.11
65598;SHT31;52267;51.984;20.956;2023-09-19T15:11:52;20.12;84.17
65598;SHT31;52267;51.984;20.956;2023-09-19T15:14:20;20.14;84.14
65598;SHT31;52267;51.984;20.956;2023-09-19T15:16:48;20.13;83.95
65598;SHT31;52267;51.984;20.956;2023-09-19T15:19:16;20.11;83.77
65598;SHT31;52267;51.984;20.956;2023-09-19T15:21:44;20.09;83.68
65598;SHT31;52267;51.984;20.956;2023-09-19T15:24:12;20.08;83.63
65598;SHT31;52267;51.984;20.956;2023-09-19T15:26:39;20.08;83.59
65598;SHT31;52267;51.984;20.956;2023-09-19T15:29:06;20.09;83.65
65598;SHT31;52267;51.984;20.956;2023-09-19T15:31:35;20.08;83.66
65598;SHT31;52267;51.984;20.956;2023-09-19T15:34:03;20.08;83.49
65598;SHT31;52267;51.984;20.956;2023-09-19T15:36:32;20.09;83.42
65598;SHT31;52267;51.984;20.956;2023-09-19T15:39:00;20.09;83.27
65598;SHT31;52267;51.984;20.956;2023-09-19T15:41:33;20.07;83.26
65598;SHT31;52267;51.984;20.956;2023-09-19T15:44:15;20.07;83.42
65598;SHT31;52267;51.984;20.956;2023-09-19T15:46:45;20.10;83.34
65598;SHT31;52267;51.984;20.956;2023-09-19T15:49:14;20.14;83.29
65598;SHT31;52267;51.984;20.956;2023-09-19T15:51:42;20.21;83.15
65598;SHT31;52267;51.984;20.956;2023-09-19T15:54:10;20.31;83.05
65598;SHT31;52267;51.984;20.956;2023-09-19T15:56:42;20.36;82.95
65598;SHT31;52267;51.984;20.956;2023-09-19T15:59:11;20.35;82.84
65598;SHT31;52267;51.984;20.956;2023-09-19T16:01:39;20.36;82.72
65598;SHT31;52267;51.984;20.956;2023-09-19T16:04:09;20.33;82.62
65598;SHT31;52267;51.984;20.956;2023-09-19T16:06:38;20.32;82.58
65598;SHT31;52267;51.984;20.956;2023-09-19T16:09:08;20.34;82.49
65598;SHT31;52267;51.984;20.956;2023-09-19T16:11:36;20.32;82.43
65598;SHT31;52267;51.984;20.956;2023-09-19T16:14:04;20.31;82.40
65598;SHT31;52267;51.984;20.956;2023-09-19T16:16:36;20.25;82.35
65598;SHT31;52267;51.984;20.956;2023-09-19T16:19:04;20.21;82.41
65598;SHT31;52267;51.984;20.956;2023-09-19T16:21:36;20.14;82.57
65598;SHT31;52267;51.984;20.956;2023-09-19T16:24:06;20.08;82.48